Time;durP1;ratioP1;P1;durP2;ratioP2;P2;SDS_P1;SDS_P2;PMS_P1;PMS_P2;Temp;Humidity;BMP_temperature;BMP_pressure;BME280_temperature;BME280_humidity;BME280_pressure;Samples;Min_cycle;Max_cycle;Signal;HPM_P1;HPM_P2
2024/01/24 00:00:21;;;;;;;7.10;1.35;;;;;;;23.69;39.54;100588.25;2073161;28;20893;-80
2024/01/24 00:01:23;;;;;;;7.65;1.80;;;;;;;23.69;39.56;100578.03;2079794;28;20786;-77
2024/01/24 00:02:27;;;;;;;4.85;2.08;;;;;;;23.69;39.72;100583.53;2068483;28;20851;-90
2024/01/24 00:03:29;;;;;;;3.63;1.20;;;;;;;23.69;39.64;100569.03;2075089;28;20049;-88
2024/01/24 00:04:30;;;;;;;5.30;1.45;;;;;;;23.69;39.72;100569.81;2074530;28;20073;-87
2024/01/24 00:05:32;;;;;;;5.25;1.40;;;;;;;23.70;39.73;100560.41;2080810;28;20088;-89
2024/01/24 00:06:37;;;;;;;5.00;1.52;;;;;;;23.69;39.75;100563.53;2082159;28;20072;-80
2024/01/24 00:07:39;;;;;;;3.90;1.75;;;;;;;23.70;39.66;100567.84;2082683;28;20899;-80
2024/01/24 00:08:41;;;;;;;4.50;1.35;;;;;;;23.70;39.67;100565.91;2091677;28;20064;-80
2024/01/24 00:09:43;;;;;;;5.78;1.67;;;;;;;23.70;39.79;100557.66;2081823;28;20748;-80
2024/01/24 00:10:45;;;;;;;3.95;1.40;;;;;;;23.70;39.71;100557.66;2074253;28;20077;-79
2024/01/24 00:11:49;;;;;;;4.97;1.27;;;;;;;23.69;39.79;100556.09;2082502;28;20030;-80
2024/01/24 00:12:51;;;;;;;5.68;1.55;;;;;;;23.69;39.70;100547.84;2082130;28;20037;-76
2024/01/24 00:13:52;;;;;;;6.00;1.70;;;;;;;23.69;39.72;100541.56;2081825;28;20213;-78
2024/01/24 00:14:54;;;;;;;3.92;1.40;;;;;;;23.70;39.81;100546.69;2081901;28;20033;-78
2024/01/24 00:15:56;;;;;;;4.25;1.20;;;;;;;23.70;39.75;100543.16;2069271;28;20964;-78
2024/01/24 00:16:57;;;;;;;5.60;1.60;;;;;;;23.69;39.74;100542.34;2073845;28;20026;-88
2024/01/24 00:17:59;;;;;;;4.78;1.52;;;;;;;23.70;39.90;100538.44;2081328;28;21201;-84
2024/01/24 00:19:00;;;;;;;4.13;1.30;;;;;;;23.71;39.90;100533.78;2090598;28;20073;-83
2024/01/24 00:20:06;;;;;;;3.97;1.42;;;;;;;23.70;39.92;100521.97;2098250;28;20267;-83
2024/01/24 00:21:08;;;;;;;5.30;1.60;;;;;;;23.69;39.94;100520.41;2090688;28;20025;-75
2024/01/24 00:22:11;;;;;;;4.35;1.40;;;;;;;23.70;39.90;100508.25;2089867;28;20150;-75
2024/01/24 00:23:16;;;;;;;4.00;1.38;;;;;;;23.70;39.95;100511.00;2073749;28;20789;-74
2024/01/24 00:24:17;;;;;;;4.40;1.50;;;;;;;23.71;39.96;100517.31;2082352;28;20022;-74
2024/01/24 00:25:19;;;;;;;2.83;1.15;;;;;;;23.71;39.97;100518.09;2089998;28;20037;-75
2024/01/24 00:26:23;;;;;;;3.33;1.30;;;;;;;23.70;40.01;100516.47;2088964;28;20021;-75
2024/01/24 00:27:25;;;;;;;5.13;1.73;;;;;;;23.71;39.97;100518.09;2098036;28;20068;-75
2024/01/24 00:28:27;;;;;;;3.70;1.20;;;;;;;23.71;39.98;100517.31;2098328;28;20298;-75
2024/01/24 00:29:31;;;;;;;3.13;1.10;;;;;;;23.71;39.97;100509.84;2090151;28;20042;-74
2024/01/24 00:30:33;;;;;;;3.00;1.08;;;;;;;23.71;39.92;100496.13;2089557;28;20040;-76
2024/01/24 00:31:35;;;;;;;4.25;1.42;;;;;;;23.70;40.05;100472.56;2081501;28;20030;-76
2024/01/24 00:32:38;;;;;;;3.67;1.40;;;;;;;23.72;39.95;100481.22;2073388;28;20030;-78
2024/01/24 00:33:40;;;;;;;4.53;1.23;;;;;;;23.72;39.97;100469.47;2074651;28;20031;-81
2024/01/24 00:34:42;;;;;;;4.60;1.27;;;;;;;23.71;39.95;100463.19;2090210;28;20955;-83
2024/01/24 00:35:44;;;;;;;4.82;1.60;;;;;;;23.71;40.02;100454.97;2081459;28;20041;-83
2024/01/24 00:36:45;;;;;;;7.28;1.33;;;;;;;23.72;40.01;100448.28;2065744;28;20019;-82
2024/01/24 00:37:47;;;;;;;7.22;1.70;;;;;;;23.72;40.10;100455.75;2081883;28;20736;-71
2024/01/24 00:38:49;;;;;;;4.05;1.20;;;;;;;23.73;40.14;100452.59;2082024;28;20041;-74
2024/01/24 00:39:50;;;;;;;3.28;1.40;;;;;;;23.72;39.95;100450.25;2081103;28;20070;-75
2024/01/24 00:40:52;;;;;;;5.20;1.65;;;;;;;23.72;40.22;100453.78;2073376;28;20215;-74
2024/01/24 00:41:56;;;;;;;3.78;1.30;;;;;;;23.72;40.12;100442.81;2065020;28;20062;-75
2024/01/24 00:42:57;;;;;;;3.30;1.30;;;;;;;23.72;40.19;100431.03;2074144;28;20022;-77
2024/01/24 00:43:59;;;;;;;5.28;1.27;;;;;;;23.73;40.13;100432.59;2081654;28;20030;-81
2024/01/24 00:45:01;;;;;;;4.72;1.38;;;;;;;23.72;40.17;100437.31;2081900;28;20868;-76
2024/01/24 00:46:02;;;;;;;5.30;1.40;;;;;;;23.72;40.04;100437.31;2085272;28;20030;-74
2024/01/24 00:47:04;;;;;;;4.13;1.20;;;;;;;23.72;40.08;100434.56;2073124;28;21224;-75
2024/01/24 00:48:06;;;;;;;7.65;1.45;;;;;;;23.71;39.83;100440.44;2073436;28;20837;-74
2024/01/24 00:49:12;;;;;;;4.93;1.35;;;;;;;23.71;40.02;100429.47;2089905;28;20032;-73
2024/01/24 00:50:14;;;;;;;8.23;2.22;;;;;;;23.70;39.77;100436.88;2090214;28;20040;-73
2024/01/24 00:51:16;;;;;;;6.15;1.80;;;;;;;23.67;39.45;100429.34;2089706;28;20024;-73
2024/01/24 00:52:17;;;;;;;8.27;2.38;;;;;;;23.66;39.31;100438.75;2073656;28;20085;-72
2024/01/24 00:53:20;;;;;;;7.43;1.58;;;;;;;23.64;39.22;100443.81;2073025;28;20891;-72
2024/01/24 00:54:22;;;;;;;6.65;1.67;;;;;;;23.62;39.11;100443.41;2082246;28;20791;-72
2024/01/24 00:55:26;;;;;;;9.00;1.70;;;;;;;23.59;39.10;100438.66;2081963;28;20137;-71
2024/01/24 00:56:28;;;;;;;7.28;2.05;;;;;;;23.58;39.00;100437.88;2088344;28;20953;-71
2024/01/24 00:57:33;;;;;;;5.70;1.52;;;;;;;23.55;38.85;100432.34;2089900;28;21013;-72
2024/01/24 00:58:34;;;;;;;6.97;1.58;;;;;;;23.51;38.76;100440.50;2081635;28;20177;-73
2024/01/24 00:59:36;;;;;;;4.95;2.10;;;;;;;23.51;38.60;100442.44;2074093;28;20058;-71
2024/01/24 01:00:37;;;;;;;6.30;1.50;;;;;;;23.47;38.60;100444.34;2082289;28;20133;-71
2024/01/24 01:01:39;;;;;;;6.43;1.77;;;;;;;23.46;38.49;100451.00;2074578;28;20033;-71
2024/01/24 01:02:43;;;;;;;4.78;1.50;;;;;;;23.42;38.46;100441.91;2074140;28;20975;-72
2024/01/24 01:03:44;;;;;;;7.22;2.83;;;;;;;23.40;38.35;100447.78;2082321;28;20893;-71
2024/01/24 01:04:46;;;;;;;7.47;2.10;;;;;;;23.38;38.31;100443.81;2074142;28;20833;-72
2024/01/24 01:05:47;;;;;;;7.45;2.08;;;;;;;23.34;38.23;100441.81;2075623;28;20068;-73
2024/01/24 01:06:50;;;;;;;4.88;1.77;;;;;;;23.33;38.38;100434.75;2099233;28;20162;-75
2024/01/24 01:07:51;;;;;;;6.55;2.00;;;;;;;23.31;38.21;100436.28;2090790;28;20036;-74
2024/01/24 01:08:55;;;;;;;7.30;1.92;;;;;;;23.28;38.02;100435.06;2083370;28;20145;-72
2024/01/24 01:09:59;;;;;;;5.85;1.80;;;;;;;23.26;38.05;100425.59;2091631;28;20866;-71
2024/01/24 01:11:01;;;;;;;5.43;1.40;;;;;;;23.23;38.05;100432.59;2090380;28;20824;-71
2024/01/24 01:12:03;;;;;;;8.77;1.73;;;;;;;23.21;38.12;100423.97;2082643;28;20034;-71
2024/01/24 01:13:05;;;;;;;6.30;1.80;;;;;;;23.19;38.05;100425.50;2083483;28;20042;-72
2024/01/24 01:14:07;;;;;;;8.15;1.83;;;;;;;23.17;38.03;100417.66;2090825;28;20784;-72
2024/01/24 01:15:08;;;;;;;8.65;2.00;;;;;;;23.14;38.04;100418.38;2074564;28;20217;-72
2024/01/24 01:16:11;;;;;;;6.20;1.52;;;;;;;23.12;37.96;100420.69;2086426;28;20819;-73
2024/01/24 01:17:13;;;;;;;8.23;1.95;;;;;;;23.10;37.85;100417.50;2090663;28;20029;-72
2024/01/24 01:18:14;;;;;;;6.85;1.98;;;;;;;23.08;37.86;100408.88;2090581;28;20049;-73
2024/01/24 01:19:16;;;;;;;6.45;1.70;;;;;;;23.05;37.72;100409.59;2090429;28;20030;-72
2024/01/24 01:20:21;;;;;;;3.15;1.45;;;;;;;23.03;37.71;100403.69;2083785;28;20796;-72
2024/01/24 01:21:22;;;;;;;6.43;1.70;;;;;;;23.01;37.73;100397.78;2090466;28;20034;-73
2024/01/24 01:22:24;;;;;;;6.30;1.80;;;;;;;22.98;37.83;100395.75;2082275;28;20022;-73
2024/01/24 01:23:25;;;;;;;5.68;2.00;;;;;;;22.96;37.80;100382.44;2065754;28;20038;-72
2024/01/24 01:24:27;;;;;;;7.50;1.77;;;;;;;22.94;37.78;100378.47;2066670;28;20117;-72
2024/01/24 01:25:29;;;;;;;5.32;1.55;;;;;;;22.93;37.71;100379.59;2082424;28;20050;-73
2024/01/24 01:26:32;;;;;;;5.45;1.58;;;;;;;22.90;37.61;100365.47;2082290;28;20045;-73
2024/01/24 01:27:34;;;;;;;7.25;2.03;;;;;;;22.88;37.64;100367.75;2098562;28;20029;-73
2024/01/24 01:28:38;;;;;;;5.13;1.65;;;;;;;22.87;37.50;100344.25;2090436;28;20036;-73
2024/01/24 01:29:40;;;;;;;8.20;2.15;;;;;;;22.85;37.51;100341.09;2090198;28;20060;-73
2024/01/24 01:30:41;;;;;;;7.03;2.00;;;;;;;22.83;37.45;100332.47;2090528;28;20855;-72
2024/01/24 01:31:45;;;;;;;7.47;1.80;;;;;;;22.81;37.57;100333.97;2076180;28;20034;-73
2024/01/24 01:32:47;;;;;;;5.70;1.65;;;;;;;22.80;37.39;100321.44;2090950;28;20029;-72
2024/01/24 01:33:49;;;;;;;7.15;2.00;;;;;;;22.78;37.39;100312.78;2107054;28;20148;-73
2024/01/24 01:34:50;;;;;;;5.50;2.03;;;;;;;22.75;37.44;100314.31;2098960;28;20025;-72
2024/01/24 01:35:53;;;;;;;5.18;1.80;;;;;;;22.75;37.38;100322.53;2081997;28;20026;-74
2024/01/24 01:36:55;;;;;;;5.63;1.63;;;;;;;22.73;37.42;100311.16;2074142;28;20029;-74
2024/01/24 01:37:56;;;;;;;8.07;2.25;;;;;;;22.71;37.24;100312.69;2074670;28;20964;-74
2024/01/24 01:39:02;;;;;;;7.78;1.75;;;;;;;22.70;37.38;100311.88;2083207;28;20022;-74
2024/01/24 01:40:06;;;;;;;7.43;1.80;;;;;;;22.69;37.41;100296.59;2082410;28;20112;-73
2024/01/24 01:41:10;;;;;;;9.90;2.03;;;;;;;22.65;37.37;100295.75;2083233;28;20041;-73
2024/01/24 01:42:12;;;;;;;9.65;2.20;;;;;;;22.65;37.18;100293.00;2082652;28;20057;-73
2024/01/24 01:43:15;;;;;;;5.40;2.00;;;;;;;22.63;37.13;100289.81;2073557;28;20042;-73
2024/01/24 01:44:17;;;;;;;8.05;2.58;;;;;;;22.61;37.21;100292.16;2081923;28;20156;-73
2024/01/24 01:45:19;;;;;;;7.50;1.95;;;;;;;22.59;37.08;100286.25;2082458;28;20077;-74
2024/01/24 01:46:21;;;;;;;6.10;2.10;;;;;;;22.58;37.11;100279.97;2086893;28;20038;-73
2024/01/24 01:47:23;;;;;;;5.18;1.73;;;;;;;22.57;37.18;100283.06;2090312;28;20045;-73
2024/01/24 01:48:25;;;;;;;5.63;1.67;;;;;;;22.54;37.09;100281.88;2066165;28;20039;-73
2024/01/24 01:49:27;;;;;;;6.38;1.77;;;;;;;22.53;37.06;100287.72;2066618;28;20073;-74
2024/01/24 01:50:29;;;;;;;11.00;2.10;;;;;;;22.51;37.00;100284.53;2082526;28;20037;-73
2024/01/24 01:51:32;;;;;;;6.90;1.83;;;;;;;22.49;36.99;100270.44;2082560;28;20065;-74
2024/01/24 01:52:33;;;;;;;9.00;1.63;;;;;;;22.47;36.99;100264.50;2082038;28;20164;-74
2024/01/24 01:53:38;;;;;;;5.97;1.90;;;;;;;22.44;36.79;100260.56;2073839;28;20054;-74
2024/01/24 01:54:41;;;;;;;6.88;1.67;;;;;;;22.42;36.81;100262.88;2074574;28;20708;-74
2024/01/24 01:55:43;;;;;;;7.57;2.08;;;;;;;22.40;36.71;100252.28;2082736;28;20033;-74
2024/01/24 01:56:47;;;;;;;7.85;1.85;;;;;;;22.38;36.81;100242.84;2082346;28;20136;-74
2024/01/24 01:57:48;;;;;;;5.20;1.73;;;;;;;22.37;36.68;100250.28;2082744;28;20156;-74
2024/01/24 01:58:50;;;;;;;8.93;1.83;;;;;;;22.35;36.81;100246.31;2082297;28;20030;-74
2024/01/24 01:59:53;;;;;;;6.97;2.42;;;;;;;22.33;36.74;100248.63;2082500;28;20033;-74
2024/01/24 02:00:55;;;;;;;8.70;2.10;;;;;;;22.30;36.64;100236.47;2082511;28;20042;-73
2024/01/24 02:02:00;;;;;;;5.50;1.95;;;;;;;22.29;36.39;100236.81;2091355;28;20029;-75
2024/01/24 02:03:01;;;;;;;5.60;2.00;;;;;;;22.25;36.54;100244.97;2082221;28;20070;-75
2024/01/24 02:04:07;;;;;;;6.25;2.20;;;;;;;22.23;36.46;100241.03;2082489;28;20037;-75
2024/01/24 02:05:12;;;;;;;8.50;2.78;;;;;;;22.19;36.55;100233.56;2082977;28;20033;-75
2024/01/24 02:06:14;;;;;;;8.88;1.98;;;;;;;22.17;36.53;100227.63;2082340;28;20077;-75
2024/01/24 02:07:15;;;;;;;7.55;1.92;;;;;;;22.14;36.56;100230.28;2082321;28;20038;-75
2024/01/24 02:08:19;;;;;;;8.00;2.00;;;;;;;22.12;36.55;100227.13;2090270;28;20037;-76
2024/01/24 02:09:25;;;;;;;6.95;1.85;;;;;;;22.12;36.62;100210.69;2089931;28;20026;-76
2024/01/24 02:10:29;;;;;;;5.50;1.95;;;;;;;22.10;36.59;100215.72;2090612;28;20041;-73
2024/01/24 02:11:34;;;;;;;8.38;2.05;;;;;;;22.06;36.45;100201.19;2091349;28;20026;-74
2024/01/24 02:12:36;;;;;;;6.25;1.95;;;;;;;22.04;36.48;100198.03;2090019;28;20033;-75
2024/01/24 02:13:37;;;;;;;7.07;1.70;;;;;;;22.02;36.44;100205.81;2082179;28;20061;-72
2024/01/24 02:14:42;;;;;;;7.32;1.77;;;;;;;21.99;36.37;100196.38;2082650;28;20014;-72
2024/01/24 02:15:46;;;;;;;7.32;2.00;;;;;;;21.98;36.31;100192.88;2082474;28;20030;-72
2024/01/24 02:16:54;;;;;;;4.57;1.83;;;;;;;21.96;36.46;100186.94;2090744;28;20160;-71
2024/01/24 02:17:55;;;;;;;6.15;1.58;;;;;;;21.94;36.44;100191.19;2090007;28;20040;-71
2024/01/24 02:18:58;;;;;;;10.13;2.17;;;;;;;21.92;36.46;100180.63;2082355;28;20833;-71
2024/01/24 02:20:00;;;;;;;9.77;1.92;;;;;;;21.91;36.58;100179.06;2081966;28;20895;-72
2024/01/24 02:21:05;;;;;;;7.47;1.65;;;;;;;21.90;36.47;100176.66;2082407;28;20030;-71
2024/01/24 02:22:07;;;;;;;8.02;2.03;;;;;;;21.88;36.63;100163.38;2082057;28;20896;-70
2024/01/24 02:23:12;;;;;;;7.30;1.90;;;;;;;21.87;36.55;100159.03;2090167;28;20029;-70
2024/01/24 02:24:13;;;;;;;6.95;2.00;;;;;;;21.85;36.70;100141.41;2090796;28;20227;-68
2024/01/24 02:25:15;;;;;;;6.28;2.22;;;;;;;21.84;36.48;100153.50;2098313;28;20044;-71
2024/01/24 02:26:16;;;;;;;4.47;1.55;;;;;;;21.82;36.40;100137.47;2089551;28;20137;-71
2024/01/24 02:27:20;;;;;;;4.82;1.52;;;;;;;21.81;36.61;100133.13;2090209;28;20034;-71
2024/01/24 02:28:24;;;;;;;5.95;2.30;;;;;;;21.80;36.61;100131.53;2098206;28;20958;-72
2024/01/24 02:29:26;;;;;;;7.55;2.03;;;;;;;21.80;36.61;100128.81;2090162;28;20126;-72
2024/01/24 02:30:27;;;;;;;10.00;2.42;;;;;;;21.80;36.54;100117.06;2081974;28;20164;-71
2024/01/24 02:31:29;;;;;;;4.88;1.55;;;;;;;21.78;36.65;100111.94;2082211;28;20148;-72
2024/01/24 02:32:31;;;;;;;6.95;2.00;;;;;;;21.78;36.53;100111.16;2090245;28;20032;-71
2024/01/24 02:33:33;;;;;;;7.28;2.00;;;;;;;21.74;36.54;100109.16;2098562;28;20045;-71
2024/01/24 02:34:35;;;;;;;6.47;2.15;;;;;;;21.76;36.56;100117.03;2090103;28;20910;-71
2024/01/24 02:35:36;;;;;;;10.77;2.20;;;;;;;21.74;36.56;100108.38;2090903;28;20060;-71
2024/01/24 02:36:38;;;;;;;7.03;2.05;;;;;;;21.73;36.44;100095.84;2098164;28;20044;-71
2024/01/24 02:37:41;;;;;;;6.28;1.85;;;;;;;21.73;36.63;100095.84;2090534;28;20018;-72
2024/01/24 02:38:42;;;;;;;8.50;2.13;;;;;;;21.72;36.57;100083.31;2073797;28;20031;-71
2024/01/24 02:39:44;;;;;;;9.10;2.08;;;;;;;21.70;36.56;100080.94;2074155;28;20942;-72
2024/01/24 02:40:45;;;;;;;7.32;2.00;;;;;;;21.69;36.50;100073.91;2065673;28;20145;-69
2024/01/24 02:41:53;;;;;;;6.85;2.10;;;;;;;21.68;36.56;100072.31;2083107;28;20703;-71
2024/01/24 02:42:54;;;;;;;6.63;1.98;;;;;;;21.68;36.57;100071.53;2098317;28;20087;-73
2024/01/24 02:43:57;;;;;;;9.70;2.17;;;;;;;21.66;36.57;100073.84;2098302;28;20855;-70
2024/01/24 02:45:00;;;;;;;6.72;1.90;;;;;;;21.65;36.46;100058.56;2106977;28;20071;-70
2024/01/24 02:46:03;;;;;;;6.82;1.80;;;;;;;21.62;36.36;100054.63;2096775;28;20979;-72
2024/01/24 02:47:05;;;;;;;7.13;1.83;;;;;;;21.62;36.44;100048.38;2073551;28;20898;-71
2024/01/24 02:48:07;;;;;;;8.63;2.40;;;;;;;21.62;36.39;100051.09;2074153;28;20197;-71
2024/01/24 02:49:09;;;;;;;6.82;2.05;;;;;;;21.59;36.38;100038.16;2090060;28;20029;-70
2024/01/24 02:50:11;;;;;;;8.48;2.13;;;;;;;21.56;36.25;100031.47;2098698;28;20868;-71
2024/01/24 02:51:23;;;;;;;7.45;2.00;;;;;;;21.56;36.31;100036.13;2090083;28;20836;-71
2024/01/24 02:52:25;;;;;;;6.00;2.08;;;;;;;21.55;36.31;100026.38;2090558;28;20026;-72
2024/01/24 02:53:27;;;;;;;7.25;2.30;;;;;;;21.54;36.35;100024.78;2090025;28;20041;-71
2024/01/24 02:54:28;;;;;;;6.75;2.50;;;;;;;21.52;36.34;100020.47;2073958;28;20026;-69
2024/01/24 02:55:32;;;;;;;6.75;2.00;;;;;;;21.50;36.36;100017.31;2082798;28;20076;-70
2024/01/24 02:56:35;;;;;;;10.18;2.05;;;;;;;21.49;36.29;100012.97;2087410;28;20065;-71
2024/01/24 02:57:40;;;;;;;8.55;1.85;;;;;;;21.48;36.51;100019.63;2074214;28;20036;-72
2024/01/24 02:58:41;;;;;;;5.65;1.85;;;;;;;21.48;36.35;100018.84;2074615;28;20027;-72
2024/01/24 02:59:53;;;;;;;8.68;2.17;;;;;;;21.47;36.47;100014.53;2082410;28;20107;-73
2024/01/24 03:00:55;;;;;;;5.75;2.00;;;;;;;21.45;36.39;100020.34;2066911;28;20034;-73
2024/01/24 03:01:59;;;;;;;6.88;1.98;;;;;;;21.45;36.40;100019.56;2073999;28;20840;-74
2024/01/24 03:03:01;;;;;;;5.82;2.15;;;;;;;21.45;36.53;100019.56;2082504;28;20033;-73
2024/01/24 03:04:02;;;;;;;6.68;2.00;;;;;;;21.44;36.52;100018.78;2081722;28;20156;-73
2024/01/24 03:05:06;;;;;;;7.60;2.00;;;;;;;21.44;36.43;100007.06;2065767;28;21270;-74
2024/01/24 03:06:08;;;;;;;8.52;1.92;;;;;;;21.42;36.39;100007.41;2073311;28;20861;-73
2024/01/24 03:07:09;;;;;;;6.57;2.10;;;;;;;21.42;36.27;100009.34;2073519;28;20081;-73
2024/01/24 03:08:11;;;;;;;6.85;2.20;;;;;;;21.41;36.39;100000.38;2074133;28;20022;-73
2024/01/24 03:09:14;;;;;;;6.28;2.00;;;;;;;21.41;36.28;99997.63;2065663;28;20888;-73
2024/01/24 03:10:16;;;;;;;8.63;2.40;;;;;;;21.40;36.44;99996.03;2057926;28;20060;-73
2024/01/24 03:11:20;;;;;;;7.22;1.90;;;;;;;21.38;36.25;99987.41;2082451;28;20025;-73
2024/01/24 03:12:22;;;;;;;5.50;2.03;;;;;;;21.37;36.29;99980.34;2089631;28;20037;-73
2024/01/24 03:13:27;;;;;;;16.52;2.38;;;;;;;21.37;36.18;99963.16;2074130;28;20927;-73
2024/01/24 03:14:28;;;;;;;7.20;2.08;;;;;;;21.36;36.07;99950.66;2074012;28;20042;-73
2024/01/24 03:15:30;;;;;;;5.63;1.90;;;;;;;21.34;35.92;99950.19;2074069;28;20030;-73
2024/01/24 03:16:32;;;;;;;5.45;1.73;;;;;;;21.31;36.08;99940.75;2073151;28;20068;-74
2024/01/24 03:17:34;;;;;;;6.60;2.40;;;;;;;21.30;36.15;99953.66;2072860;28;20240;-73
2024/01/24 03:18:39;;;;;;;8.15;1.90;;;;;;;21.29;36.11;99973.16;2074051;28;20038;-73
2024/01/24 03:19:42;;;;;;;7.63;1.90;;;;;;;21.28;36.30;99966.13;2090122;28;20947;-73
2024/01/24 03:20:44;;;;;;;4.82;1.85;;;;;;;21.27;36.35;99957.13;2098300;28;20905;-73
2024/01/24 03:21:46;;;;;;;5.07;1.55;;;;;;;21.25;36.36;99962.19;2090208;28;20033;-73
2024/01/24 03:22:48;;;;;;;4.75;1.90;;;;;;;21.26;36.39;99960.22;2081908;28;20042;-73
2024/01/24 03:23:49;;;;;;;8.05;2.10;;;;;;;21.25;36.42;99950.47;2074075;28;20085;-73
2024/01/24 03:24:52;;;;;;;5.05;1.88;;;;;;;21.25;36.40;99947.72;2065483;28;20061;-73
2024/01/24 03:25:54;;;;;;;5.13;1.75;;;;;;;21.24;36.14;99946.13;2082703;28;20028;-73
2024/01/24 03:26:55;;;;;;;8.20;2.17;;;;;;;21.24;36.25;99932.44;2089522;28;20041;-73
2024/01/24 03:27:57;;;;;;;6.53;2.30;;;;;;;21.23;36.27;99931.66;2073848;28;20034;-73
2024/01/24 03:28:59;;;;;;;7.00;2.30;;;;;;;21.21;36.17;99928.50;2066199;28;20106;-73
2024/01/24 03:30:01;;;;;;;6.15;1.88;;;;;;;21.20;36.14;99923.41;2090019;28;20124;-73
2024/01/24 03:31:02;;;;;;;7.80;2.00;;;;;;;21.18;36.09;99917.50;2081554;28;20076;-73
2024/01/24 03:32:05;;;;;;;5.53;1.90;;;;;;;21.18;36.24;99912.03;2081725;28;20479;-73
2024/01/24 03:33:06;;;;;;;6.72;2.05;;;;;;;21.16;35.96;99892.50;2090439;28;20041;-73
2024/01/24 03:34:08;;;;;;;6.25;1.88;;;;;;;21.15;36.04;99896.38;2089941;28;20026;-72
2024/01/24 03:35:10;;;;;;;9.05;2.88;;;;;;;21.13;35.95;99895.97;2073594;28;20172;-71
2024/01/24 03:36:14;;;;;;;5.88;1.88;;;;;;;21.11;36.05;99890.84;2066520;28;20947;-71
2024/01/24 03:37:17;;;;;;;7.32;1.70;;;;;;;21.10;35.93;99892.00;2082494;28;20065;-72
2024/01/24 03:38:20;;;;;;;11.40;3.03;;;;;;;21.08;35.98;99885.31;2081843;28;20041;-71
2024/01/24 03:39:25;;;;;;;7.38;1.90;;;;;;;21.06;36.02;99886.50;2083197;28;20853;-72
2024/01/24 03:40:29;;;;;;;8.90;1.88;;;;;;;21.05;35.90;99867.72;2089878;28;20061;-73
2024/01/24 03:41:30;;;;;;;6.18;2.22;;;;;;;21.01;35.70;99859.47;2090654;28;20029;-75
2024/01/24 03:42:31;;;;;;;6.50;1.92;;;;;;;20.99;35.87;99853.56;2090117;28;20033;-75
2024/01/24 03:43:34;;;;;;;9.43;2.95;;;;;;;20.97;35.75;99857.84;2089906;28;20038;-73
2024/01/24 03:44:37;;;;;;;5.32;1.80;;;;;;;20.94;35.58;99845.69;2098045;28;20048;-73
2024/01/24 03:45:38;;;;;;;10.07;2.30;;;;;;;20.90;35.52;99830.38;2098343;28;20013;-73
2024/01/24 03:46:41;;;;;;;6.57;1.73;;;;;;;20.87;35.77;99825.63;2106142;28;20831;-74
2024/01/24 03:47:42;;;;;;;5.95;1.67;;;;;;;20.81;35.81;99816.97;2081651;28;20026;-76
2024/01/24 03:48:44;;;;;;;9.13;2.42;;;;;;;20.79;35.74;99819.28;2082313;28;20061;-76
2024/01/24 03:49:46;;;;;;;4.70;1.80;;;;;;;20.77;35.64;99816.13;2098166;28;20099;-76
2024/01/24 03:50:47;;;;;;;8.57;2.20;;;;;;;20.75;35.66;99812.97;2089715;28;20038;-73
2024/01/24 03:51:49;;;;;;;7.50;2.05;;;;;;;20.71;35.91;99807.47;2089876;28;20860;-72
2024/01/24 03:52:51;;;;;;;5.90;1.88;;;;;;;20.69;35.89;99803.50;2097947;28;20041;-73
2024/01/24 03:53:56;;;;;;;5.65;2.20;;;;;;;20.66;36.03;99799.56;2098385;28;20032;-72
2024/01/24 03:54:57;;;;;;;8.27;2.22;;;;;;;20.64;35.97;99801.06;2090676;28;20796;-72
2024/01/24 03:56:02;;;;;;;7.68;2.22;;;;;;;20.62;36.25;99795.16;2097953;28;20025;-72
2024/01/24 03:57:07;;;;;;;7.00;1.88;;;;;;;20.61;36.25;99788.94;2089894;28;20112;-72
2024/01/24 03:58:09;;;;;;;6.43;2.20;;;;;;;20.57;36.26;99780.69;2074018;28;20042;-73
2024/01/24 03:59:11;;;;;;;8.63;2.03;;;;;;;20.56;36.28;99778.31;2073924;28;20053;-71
2024/01/24 04:00:16;;;;;;;4.65;1.83;;;;;;;20.53;36.18;99776.31;2089933;28;20025;-71
2024/01/24 04:01:18;;;;;;;7.50;2.00;;;;;;;20.51;36.38;99764.94;2098175;28;20088;-70
2024/01/24 04:02:20;;;;;;;9.98;2.05;;;;;;;20.49;36.29;99772.69;2097813;28;20065;-71
2024/01/24 04:03:22;;;;;;;5.32;1.92;;;;;;;20.47;36.41;99758.63;2073320;28;20035;-71
2024/01/24 04:04:24;;;;;;;5.10;2.03;;;;;;;20.43;36.41;99753.13;2081804;28;20018;-71
2024/01/24 04:05:25;;;;;;;5.25;1.75;;;;;;;20.41;36.48;99752.69;2089721;28;20092;-71
2024/01/24 04:06:28;;;;;;;8.73;2.08;;;;;;;20.39;36.37;99741.31;2092141;28;20041;-71
2024/01/24 04:07:29;;;;;;;7.50;2.10;;;;;;;20.37;36.67;99741.72;2098253;28;20056;-71
2024/01/24 04:08:31;;;;;;;6.40;2.10;;;;;;;20.35;36.48;99724.88;2073130;28;20039;-71
2024/01/24 04:09:33;;;;;;;5.05;1.83;;;;;;;20.34;36.64;99728.00;2082306;28;20855;-70
2024/01/24 04:10:37;;;;;;;5.68;2.10;;;;;;;20.31;36.58;99702.22;2097904;28;20025;-69
2024/01/24 04:11:39;;;;;;;7.28;2.10;;;;;;;20.30;36.60;99711.56;2098679;28;20879;-69
2024/01/24 04:12:41;;;;;;;6.07;1.90;;;;;;;20.29;36.76;99701.00;2097764;28;20140;-69
2024/01/24 04:13:43;;;;;;;9.65;2.20;;;;;;;20.27;36.72;99697.84;2090023;28;20107;-69
2024/01/24 04:14:44;;;;;;;6.97;2.22;;;;;;;20.25;36.78;99691.97;2081008;28;20026;-69
2024/01/24 04:15:48;;;;;;;8.90;1.90;;;;;;;20.22;36.75;99698.94;2090021;28;20041;-70
2024/01/24 04:16:50;;;;;;;7.63;2.10;;;;;;;20.23;36.75;99694.25;2089125;28;20848;-70
2024/01/24 04:17:52;;;;;;;7.00;2.30;;;;;;;20.20;36.73;99692.25;2081207;28;20863;-69
2024/01/24 04:18:53;;;;;;;8.38;1.90;;;;;;;20.18;36.79;99686.41;2089636;28;20806;-71
2024/01/24 04:19:57;;;;;;;6.13;2.05;;;;;;;20.16;36.86;99689.47;2081448;28;20128;-71
2024/01/24 04:21:01;;;;;;;5.72;1.85;;;;;;;20.14;36.89;99687.13;2074045;28;20034;-71
2024/01/24 04:22:03;;;;;;;6.15;2.00;;;;;;;20.12;36.88;99678.50;2082472;28;20883;-71
2024/01/24 04:23:05;;;;;;;7.38;1.77;;;;;;;20.10;36.87;99678.06;2081102;28;20030;-71
2024/01/24 04:24:07;;;;;;;5.75;1.95;;;;;;;20.09;37.03;99673.78;2081755;28;20037;-72
2024/01/24 04:25:11;;;;;;;8.35;2.35;;;;;;;20.06;37.12;99668.25;2098164;28;20897;-71
2024/01/24 04:26:16;;;;;;;6.40;2.10;;;;;;;20.07;37.05;99658.91;2105676;28;20143;-71
2024/01/24 04:27:18;;;;;;;4.90;2.03;;;;;;;20.03;37.19;99658.84;2089175;28;20081;-70
2024/01/24 04:28:20;;;;;;;6.85;1.80;;;;;;;20.03;37.19;99653.41;2081623;28;20030;-69
2024/01/24 04:29:22;;;;;;;6.63;1.92;;;;;;;20.01;37.15;99633.84;2089904;28;20066;-72
2024/01/24 04:30:23;;;;;;;5.10;1.70;;;;;;;19.99;37.14;99655.28;2081483;28;20030;-71
2024/01/24 04:31:24;;;;;;;4.25;1.63;;;;;;;19.97;37.24;99640.41;2081327;28;20037;-70
2024/01/24 04:32:26;;;;;;;4.85;1.60;;;;;;;19.96;37.04;99636.91;2090399;28;20064;-69
2024/01/24 04:33:30;;;;;;;6.93;2.03;;;;;;;19.94;37.08;99641.16;2084162;28;20069;-74
2024/01/24 04:34:31;;;;;;;3.95;1.70;;;;;;;19.91;37.12;99634.47;2075504;28;21207;-74
2024/01/24 04:35:33;;;;;;;6.10;2.47;;;;;;;19.89;37.39;99629.41;2077133;28;20086;-75
2024/01/24 04:36:37;;;;;;;7.03;1.70;;;;;;;19.87;37.37;99620.78;2087144;28;20033;-75
2024/01/24 04:37:39;;;;;;;5.63;1.90;;;;;;;19.85;37.36;99614.88;2091470;28;20080;-75
2024/01/24 04:38:44;;;;;;;6.18;2.08;;;;;;;19.84;37.39;99593.44;2083562;28;20029;-75
2024/01/24 04:39:47;;;;;;;4.00;1.60;;;;;;;19.80;37.46;99579.75;2090708;28;20033;-74
2024/01/24 04:40:48;;;;;;;4.13;1.70;;;;;;;19.81;37.42;99586.00;2091289;28;20032;-73
2024/01/24 04:41:50;;;;;;;6.35;1.88;;;;;;;19.80;37.49;99576.25;2090668;28;20021;-73
2024/01/24 04:42:52;;;;;;;5.93;2.10;;;;;;;19.80;37.60;99559.88;2083373;28;20053;-73
2024/01/24 04:43:56;;;;;;;4.82;1.52;;;;;;;19.79;37.61;99561.00;2091163;28;20033;-73
2024/01/24 04:45:00;;;;;;;7.03;1.80;;;;;;;19.78;37.40;99553.97;2075324;28;20038;-75
2024/01/24 04:46:03;;;;;;;5.35;2.05;;;;;;;19.76;37.40;99545.38;2083037;28;20884;-72
2024/01/24 04:47:06;;;;;;;6.63;1.98;;;;;;;19.75;37.40;99539.13;2097915;28;20894;-74
2024/01/24 04:48:09;;;;;;;4.78;1.80;;;;;;;19.75;37.40;99538.34;2082993;28;20861;-74
2024/01/24 04:49:13;;;;;;;6.82;2.00;;;;;;;19.73;37.37;99529.72;2075529;28;20045;-76
2024/01/24 04:50:16;;;;;;;4.97;1.85;;;;;;;19.70;37.49;99544.88;2075595;28;20035;-75
2024/01/24 04:51:17;;;;;;;7.13;1.90;;;;;;;19.69;37.48;99526.94;2082983;28;20124;-72